createdAt,value
2017-07-16T00:01:10.352Z,76.10
2017-07-16T00:03:37.928Z,75.70
2017-07-16T00:06:05.483Z,75.60
2017-07-16T00:08:33.050Z,75.70
2017-07-16T00:11:00.613Z,75.80
2017-07-16T00:13:28.572Z,76.20
2017-07-16T00:15:56.133Z,76.20
2017-07-16T00:18:23.726Z,76.10
2017-07-16T00:20:51.295Z,76.50
2017-07-16T00:23:18.862Z,76.20
2017-07-16T00:25:46.829Z,76.70
2017-07-16T00:28:14.388Z,76.70
2017-07-16T00:30:41.976Z,77.30
2017-07-16T00:33:09.525Z,76.50
2017-07-16T00:35:37.085Z,76.50
2017-07-16T00:38:04.647Z,76.70
2017-07-16T00:40:32.217Z,76.50
2017-07-16T00:42:59.760Z,76.60
2017-07-16T00:45:27.307Z,76.80
2017-07-16T00:47:54.869Z,77.00
2017-07-16T00:50:22.485Z,76.80
2017-07-16T00:52:50.041Z,76.70
2017-07-16T00:55:17.601Z,76.70
2017-07-16T00:57:45.176Z,76.60
2017-07-16T01:00:13.141Z,76.90
2017-07-16T01:02:40.706Z,76.90
2017-07-16T01:05:08.271Z,77.10
2017-07-16T01:07:35.870Z,77.00
2017-07-16T01:10:03.808Z,76.60
2017-07-16T01:12:31.369Z,76.60
2017-07-16T01:14:59.315Z,75.60
2017-07-16T01:17:27.278Z,75.70
2017-07-16T01:19:54.859Z,75.70
2017-07-16T01:22:22.406Z,76.70
2017-07-16T01:24:49.965Z,76.10
2017-07-16T01:27:17.528Z,76.50
2017-07-16T01:29:45.133Z,76.30
2017-07-16T01:32:12.670Z,76.30
2017-07-16T01:34:40.237Z,76.60
2017-07-16T01:37:07.815Z,76.70
2017-07-16T01:39:35.463Z,76.70
2017-07-16T01:42:03.038Z,76.70
2017-07-16T01:44:30.598Z,77.20
2017-07-16T01:46:58.163Z,77.40
2017-07-16T01:49:25.705Z,77.30
2017-07-16T01:51:53.254Z,76.90
2017-07-16T01:54:20.817Z,77.00
2017-07-16T01:56:48.397Z,77.20
2017-07-16T01:59:15.978Z,76.90
2017-07-16T02:01:43.574Z,77.10
2017-07-16T02:04:11.514Z,76.70
2017-07-16T02:06:39.100Z,76.70
2017-07-16T02:09:06.676Z,76.70
2017-07-16T02:11:34.204Z,76.80
2017-07-16T02:14:01.789Z,77.10
2017-07-16T02:16:29.331Z,77.20
2017-07-16T02:18:56.913Z,77.50
2017-07-16T02:21:24.461Z,77.20
2017-07-16T02:23:52.002Z,77.30
2017-07-16T02:26:19.566Z,77.30
2017-07-16T02:28:47.124Z,77.50
2017-07-16T02:31:14.675Z,77.20
2017-07-16T02:33:42.264Z,76.50
2017-07-16T02:36:09.831Z,76.50
2017-07-16T02:38:37.375Z,76.50
2017-07-16T02:41:04.947Z,76.80
2017-07-16T02:43:32.505Z,76.80
2017-07-16T02:46:00.079Z,77.00
2017-07-16T02:48:27.650Z,76.60
2017-07-16T02:50:55.203Z,76.70
2017-07-16T02:53:22.756Z,76.90
2017-07-16T02:55:50.330Z,77.30
2017-07-16T02:58:17.868Z,77.10
2017-07-16T03:00:45.463Z,76.90
2017-07-16T03:03:13.031Z,76.90
2017-07-16T03:05:40.564Z,77.40
2017-07-16T03:08:08.127Z,77.90
2017-07-16T03:10:35.683Z,77.80
2017-07-16T03:13:03.274Z,77.70
2017-07-16T03:15:30.812Z,78.00
2017-07-16T03:17:58.740Z,77.90
2017-07-16T03:20:26.283Z,77.90
2017-07-16T03:22:53.846Z,78.20
2017-07-16T03:25:33.549Z,78.20
2017-07-16T03:28:01.071Z,78.20
2017-07-16T03:30:28.621Z,78.20
2017-07-16T03:32:56.178Z,78.40
2017-07-16T03:35:23.763Z,78.50
2017-07-16T03:37:51.718Z,79.10
2017-07-16T03:40:19.680Z,78.50
2017-07-16T03:42:47.633Z,78.30
2017-07-16T03:45:15.232Z,78.30
2017-07-16T03:47:42.785Z,78.40
2017-07-16T03:50:10.354Z,78.70
2017-07-16T03:52:37.900Z,78.80
2017-07-16T03:55:05.835Z,79.40
2017-07-16T03:57:33.398Z,79.40
2017-07-16T04:00:00.959Z,79.60
2017-07-16T04:02:28.523Z,79.30
2017-07-16T04:04:56.103Z,79.60
2017-07-16T04:07:23.687Z,80.00
2017-07-16T04:09:51.234Z,79.70
2017-07-16T04:12:18.799Z,79.80
2017-07-16T04:14:46.365Z,80.20
2017-07-16T04:17:13.928Z,80.40
2017-07-16T04:19:41.503Z,80.10
2017-07-16T04:22:09.458Z,80.20
2017-07-16T04:24:37.411Z,80.20
2017-07-16T04:27:04.988Z,80.20
2017-07-16T04:29:32.560Z,80.40
2017-07-16T04:32:00.120Z,80.60
2017-07-16T04:37:01.535Z,80.80
2017-07-16T04:39:29.145Z,81.20
2017-07-16T04:41:56.712Z,81.00
2017-07-16T04:44:24.248Z,81.00
2017-07-16T04:46:51.835Z,81.10
2017-07-16T04:49:19.398Z,81.20
2017-07-16T04:51:46.996Z,81.40
2017-07-16T04:54:14.561Z,81.80
2017-07-16T04:56:42.139Z,82.20
2017-07-16T04:59:09.686Z,82.20
2017-07-16T05:01:37.268Z,82.10
2017-07-16T05:04:04.834Z,82.20
2017-07-16T05:06:32.465Z,82.40
2017-07-16T05:09:00.004Z,82.40
2017-07-16T05:11:27.513Z,82.30
2017-07-16T05:13:55.134Z,82.10
2017-07-16T05:16:23.093Z,82.80
2017-07-16T05:18:51.066Z,82.90
2017-07-16T05:21:19.000Z,82.70
2017-07-16T05:23:47.008Z,83.00
2017-07-16T05:26:14.562Z,83.10
2017-07-16T05:28:42.157Z,82.20
2017-07-16T05:31:09.727Z,82.20
2017-07-16T05:33:37.264Z,81.90
2017-07-16T05:36:04.809Z,81.80
2017-07-16T05:38:32.360Z,82.00
2017-07-16T05:40:59.906Z,82.40
2017-07-16T05:43:27.455Z,82.50
2017-07-16T05:45:55.210Z,82.50
2017-07-16T05:48:22.756Z,82.80
2017-07-16T05:50:50.387Z,82.90
2017-07-16T05:53:17.977Z,83.10
2017-07-16T05:55:45.516Z,83.40
2017-07-16T05:58:13.108Z,83.50
2017-07-16T06:00:40.668Z,83.80
2017-07-16T06:03:08.243Z,83.90
2017-07-16T06:05:35.767Z,83.70
2017-07-16T06:08:03.341Z,83.80
2017-07-16T06:10:30.862Z,83.80
2017-07-16T06:12:58.424Z,84.00
2017-07-16T06:15:26.031Z,84.10
2017-07-16T06:17:53.603Z,84.00
2017-07-16T06:20:21.229Z,84.10
2017-07-16T06:22:48.787Z,84.40
2017-07-16T06:25:16.357Z,84.50
2017-07-16T06:27:44.482Z,84.50
2017-07-16T06:30:12.029Z,84.90
2017-07-16T06:32:39.664Z,84.70
2017-07-16T06:35:07.209Z,84.90
2017-07-16T06:37:34.796Z,85.10
2017-07-16T06:40:02.354Z,85.20
2017-07-16T06:42:29.940Z,85.20
2017-07-16T06:44:57.504Z,84.70
2017-07-16T06:47:25.036Z,84.70
2017-07-16T06:49:52.623Z,84.90
2017-07-16T06:52:20.167Z,84.90
2017-07-16T06:54:47.756Z,84.90
2017-07-16T06:57:15.374Z,85.40
2017-07-16T06:59:43.300Z,85.60
2017-07-16T07:02:10.967Z,85.60
2017-07-16T07:04:38.523Z,86.20
2017-07-16T07:07:06.162Z,86.80
2017-07-16T07:09:34.124Z,86.80
2017-07-16T07:12:01.660Z,86.90
2017-07-16T07:14:29.224Z,87.10
2017-07-16T07:16:57.454Z,87.80
2017-07-16T07:19:24.957Z,88.20
2017-07-16T07:21:52.525Z,88.40
2017-07-16T07:24:20.074Z,89.30
2017-07-16T07:26:47.603Z,89.80
2017-07-16T07:29:15.203Z,90.40
2017-07-16T07:31:42.721Z,90.80
2017-07-16T07:34:10.268Z,91.20
2017-07-16T07:36:37.785Z,91.50
2017-07-16T07:39:05.299Z,92.20
2017-07-16T07:41:32.827Z,91.80
2017-07-16T07:44:00.373Z,91.60
2017-07-16T07:46:27.903Z,92.00
2017-07-16T07:48:55.836Z,92.50
2017-07-16T07:51:23.375Z,92.50
2017-07-16T07:53:51.288Z,92.80
2017-07-16T07:56:18.827Z,92.80
2017-07-16T07:58:46.399Z,93.60
2017-07-16T08:01:14.007Z,93.80
2017-07-16T08:03:41.543Z,93.10
2017-07-16T08:06:09.108Z,93.10
2017-07-16T08:08:36.630Z,92.50
2017-07-16T08:11:04.150Z,92.40
2017-07-16T08:13:32.057Z,91.50
2017-07-16T08:15:59.636Z,91.40
2017-07-16T08:18:27.145Z,92.10
2017-07-16T08:20:55.119Z,91.50
2017-07-16T08:23:22.668Z,91.50
2017-07-16T08:25:50.260Z,92.00
2017-07-16T08:28:17.828Z,92.10
2017-07-16T08:30:46.105Z,92.20
2017-07-16T08:33:13.657Z,92.30
2017-07-16T08:35:41.181Z,92.30
2017-07-16T08:38:08.734Z,92.30
2017-07-16T08:40:36.307Z,92.80
2017-07-16T08:43:03.996Z,92.60
2017-07-16T08:45:31.544Z,91.70
2017-07-16T08:47:59.050Z,92.20
2017-07-16T08:50:26.978Z,91.70
2017-07-16T08:52:55.561Z,91.70
2017-07-16T08:55:23.564Z,91.00
2017-07-16T08:57:51.140Z,91.00
2017-07-16T09:00:18.745Z,90.70
2017-07-16T09:02:46.291Z,90.60
2017-07-16T09:05:13.873Z,90.70
2017-07-16T09:07:41.474Z,91.90
2017-07-16T09:10:09.071Z,91.80
2017-07-16T09:12:36.671Z,91.10
2017-07-16T09:15:04.240Z,90.80
2017-07-16T09:17:31.756Z,90.60
2017-07-16T09:19:59.339Z,90.90
2017-07-16T09:22:26.918Z,90.90
2017-07-16T09:24:54.481Z,90.20
2017-07-16T09:27:22.056Z,90.00
2017-07-16T09:29:49.586Z,90.20
2017-07-16T09:32:17.123Z,90.00
2017-07-16T09:34:44.639Z,88.80
2017-07-16T09:37:12.261Z,88.70
2017-07-16T09:39:39.787Z,88.40
2017-07-16T09:42:07.350Z,87.60
2017-07-16T09:44:34.868Z,87.70
2017-07-16T09:47:02.431Z,86.30
2017-07-16T09:49:30.036Z,86.50
2017-07-16T09:51:57.586Z,86.40
2017-07-16T09:54:25.180Z,86.10
2017-07-16T09:56:53.139Z,86.50
2017-07-16T09:59:20.838Z,86.50
2017-07-16T10:01:48.403Z,87.10
2017-07-16T10:04:16.040Z,86.70
2017-07-16T10:06:44.267Z,86.50
2017-07-16T10:09:13.858Z,86.30
2017-07-16T10:11:41.388Z,86.90
2017-07-16T10:14:08.977Z,86.40
2017-07-16T10:16:36.511Z,86.60
2017-07-16T10:19:04.137Z,85.60
2017-07-16T10:21:31.846Z,85.40
2017-07-16T10:23:59.421Z,86.40
2017-07-16T10:26:26.999Z,86.50
2017-07-16T10:28:54.538Z,86.30
2017-07-16T10:31:22.090Z,85.50
2017-07-16T10:33:49.672Z,85.00
2017-07-16T10:36:17.222Z,85.20
2017-07-16T10:38:45.234Z,86.00
2017-07-16T10:41:12.846Z,86.00
2017-07-16T10:43:40.372Z,85.60
2017-07-16T10:46:08.031Z,85.80
2017-07-16T10:48:35.995Z,85.60
2017-07-16T10:51:03.552Z,85.60
2017-07-16T10:53:31.078Z,85.90
2017-07-16T10:55:58.586Z,85.70
2017-07-16T10:58:26.125Z,85.60
2017-07-16T11:00:54.502Z,85.40
2017-07-16T11:03:22.039Z,85.30
2017-07-16T11:05:49.570Z,85.00
2017-07-16T11:08:17.136Z,85.30
2017-07-16T11:10:44.671Z,86.00
2017-07-16T11:13:12.302Z,85.70
2017-07-16T11:15:40.023Z,85.70
2017-07-16T11:18:07.621Z,85.50
2017-07-16T11:20:35.150Z,85.00
2017-07-16T11:23:02.689Z,85.90
2017-07-16T11:25:30.206Z,85.30
2017-07-16T11:27:57.713Z,84.50
2017-07-16T11:30:25.252Z,83.80
2017-07-16T11:32:52.786Z,83.30
2017-07-16T11:35:20.349Z,83.60
2017-07-16T11:37:47.846Z,84.70
2017-07-16T11:40:16.819Z,85.10
2017-07-16T11:42:45.472Z,84.50
2017-07-16T11:45:13.444Z,84.80
2017-07-16T11:47:41.073Z,84.80
2017-07-16T11:50:08.626Z,84.70
2017-07-16T11:52:36.176Z,85.00
2017-07-16T11:55:03.695Z,84.40
2017-07-16T11:57:31.216Z,84.70
2017-07-16T11:59:59.021Z,83.90
2017-07-16T12:02:26.581Z,84.10
2017-07-16T12:04:54.147Z,84.40
2017-07-16T12:07:21.681Z,84.80
2017-07-16T12:09:49.265Z,83.60
2017-07-16T12:12:16.830Z,84.00
2017-07-16T12:14:44.451Z,84.00
2017-07-16T12:17:11.992Z,83.70
2017-07-16T12:19:39.558Z,82.80
2017-07-16T12:22:07.126Z,82.60
2017-07-16T12:24:34.672Z,81.90
2017-07-16T12:27:02.667Z,82.20
2017-07-16T12:29:30.209Z,82.20
2017-07-16T12:31:57.742Z,82.50
2017-07-16T12:34:25.275Z,82.60
2017-07-16T12:36:52.786Z,83.20
2017-07-16T12:39:20.479Z,83.00
2017-07-16T12:41:48.031Z,82.80
2017-07-16T12:44:15.610Z,82.40
2017-07-16T12:46:43.214Z,81.70
2017-07-16T12:49:10.748Z,82.70
2017-07-16T12:51:38.281Z,83.00
2017-07-16T12:54:05.851Z,82.60
2017-07-16T12:56:33.421Z,81.90
2017-07-16T12:59:00.924Z,81.70
2017-07-16T13:01:28.445Z,82.10
2017-07-16T13:03:55.980Z,81.90
2017-07-16T13:06:23.520Z,81.90
2017-07-16T13:08:51.435Z,80.60
2017-07-16T13:11:18.990Z,80.60
2017-07-16T13:13:46.645Z,80.50
2017-07-16T13:16:14.182Z,80.80
2017-07-16T13:18:41.762Z,81.00
2017-07-16T13:21:09.760Z,79.50
2017-07-16T13:23:37.402Z,79.50
2017-07-16T13:26:05.020Z,80.40
2017-07-16T13:28:32.559Z,80.90
2017-07-16T13:31:00.084Z,80.00
2017-07-16T13:33:28.061Z,79.30
2017-07-16T13:35:55.620Z,79.30
2017-07-16T13:38:23.172Z,79.80
2017-07-16T13:40:50.717Z,79.30
2017-07-16T13:43:18.256Z,79.20
2017-07-16T13:45:46.785Z,79.40
2017-07-16T13:48:15.327Z,79.60
2017-07-16T13:50:42.864Z,79.60
2017-07-16T13:53:10.431Z,79.30
2017-07-16T13:55:37.963Z,79.50
2017-07-16T13:58:05.485Z,79.90
2017-07-16T14:00:33.010Z,80.70
2017-07-16T14:03:00.582Z,80.30
2017-07-16T14:05:28.133Z,79.20
2017-07-16T14:07:55.741Z,78.70
2017-07-16T14:10:23.344Z,79.50
2017-07-16T14:12:50.906Z,78.90
2017-07-16T14:15:18.482Z,77.60
2017-07-16T14:17:46.111Z,78.20
2017-07-16T14:20:13.648Z,77.40
2017-07-16T14:22:41.294Z,76.90
2017-07-16T14:25:09.231Z,78.70
2017-07-16T14:27:36.809Z,78.60
2017-07-16T14:30:04.318Z,78.20
2017-07-16T14:32:31.853Z,77.90
2017-07-16T14:34:59.407Z,77.80
2017-07-16T14:37:27.382Z,76.90
2017-07-16T14:39:54.907Z,76.90
2017-07-16T14:42:22.831Z,77.10
2017-07-16T14:44:50.358Z,77.10
2017-07-16T14:47:17.872Z,77.20
2017-07-16T14:49:45.520Z,77.80
2017-07-16T14:52:13.099Z,77.20
2017-07-16T14:54:40.689Z,76.60
2017-07-16T14:57:08.219Z,77.30
2017-07-16T14:59:35.762Z,77.40
2017-07-16T15:02:03.294Z,78.10
2017-07-16T15:04:30.893Z,78.10
2017-07-16T15:06:58.434Z,77.80
2017-07-16T15:09:25.942Z,77.60
2017-07-16T15:11:53.880Z,77.50
2017-07-16T15:14:21.408Z,77.50
2017-07-16T15:16:48.959Z,77.80
2017-07-16T15:19:16.474Z,77.70
2017-07-16T15:21:44.019Z,78.60
2017-07-16T15:24:11.605Z,78.70
2017-07-16T15:26:39.171Z,78.60
2017-07-16T15:29:07.085Z,78.30
2017-07-16T15:31:34.628Z,78.40
2017-07-16T15:34:02.187Z,78.70
2017-07-16T15:36:30.119Z,79.00
2017-07-16T15:38:57.656Z,79.00
2017-07-16T15:41:25.195Z,79.40
2017-07-16T15:43:52.727Z,79.30
2017-07-16T15:46:20.234Z,79.80
2017-07-16T15:48:48.211Z,80.20
2017-07-16T15:51:16.610Z,80.20
2017-07-16T15:53:44.156Z,80.00
2017-07-16T15:56:11.661Z,80.30
2017-07-16T15:58:39.198Z,80.20
2017-07-16T16:01:06.693Z,80.50
2017-07-16T16:03:34.204Z,80.10
2017-07-16T16:06:01.771Z,80.20
2017-07-16T16:08:29.286Z,80.20
2017-07-16T16:10:56.861Z,79.90
2017-07-16T16:13:24.388Z,80.90
2017-07-16T16:15:52.224Z,81.10
2017-07-16T16:18:19.822Z,80.50
2017-07-16T16:20:47.362Z,80.40
2017-07-16T16:23:14.977Z,80.50
2017-07-16T16:25:42.696Z,80.20
2017-07-16T16:28:10.259Z,80.50
2017-07-16T16:30:37.837Z,79.90
2017-07-16T16:33:05.461Z,79.60
2017-07-16T16:35:32.985Z,78.80
2017-07-16T16:38:00.645Z,79.20
2017-07-16T16:40:28.277Z,79.90
2017-07-16T16:43:23.413Z,79.50
2017-07-16T16:46:03.141Z,79.30
2017-07-16T16:48:31.109Z,79.50
2017-07-16T16:50:58.668Z,79.50
2017-07-16T16:53:26.249Z,79.60
2017-07-16T16:55:53.940Z,79.40
2017-07-16T16:58:23.378Z,79.30
2017-07-16T17:00:51.010Z,79.10
2017-07-16T17:03:19.577Z,79.00
2017-07-16T17:05:47.169Z,79.20
2017-07-16T17:08:14.772Z,79.30
2017-07-16T17:10:44.374Z,79.60
2017-07-16T17:13:11.963Z,79.00
2017-07-16T17:15:39.514Z,79.30
2017-07-16T17:18:07.117Z,79.50
2017-07-16T17:20:34.790Z,79.40
2017-07-16T17:23:02.373Z,79.70
2017-07-16T17:25:29.928Z,79.70
2017-07-16T17:27:57.446Z,80.30
2017-07-16T17:30:25.801Z,79.70
2017-07-16T17:32:53.331Z,80.40
2017-07-16T17:35:21.039Z,80.40
2017-07-16T17:37:50.459Z,80.50
2017-07-16T17:40:21.157Z,80.30
2017-07-16T17:42:49.536Z,80.50
2017-07-16T17:45:17.123Z,80.20
2017-07-16T17:47:44.858Z,80.80
2017-07-16T17:50:12.463Z,81.20
2017-07-16T17:52:40.042Z,80.80
2017-07-16T17:55:07.560Z,80.60
2017-07-16T17:57:35.099Z,80.70
2017-07-16T18:00:02.698Z,81.30
2017-07-16T18:02:30.253Z,80.90
2017-07-16T18:04:59.204Z,80.40
2017-07-16T18:07:26.862Z,79.90
2017-07-16T18:09:54.821Z,79.80
2017-07-16T18:12:23.766Z,79.70
2017-07-16T18:14:51.316Z,79.70
2017-07-16T18:17:18.855Z,79.30
2017-07-16T18:19:46.724Z,79.40
2017-07-16T18:22:14.438Z,79.50
2017-07-16T18:24:42.003Z,79.10
2017-07-16T18:27:09.560Z,79.10
2017-07-16T18:29:37.120Z,79.00
2017-07-16T18:32:05.021Z,79.70
2017-07-16T18:34:32.672Z,79.60
2017-07-16T18:37:00.592Z,80.10
2017-07-16T18:39:28.157Z,80.70
2017-07-16T18:41:55.793Z,80.80
2017-07-16T18:44:23.362Z,81.00
2017-07-16T18:46:50.977Z,80.60
2017-07-16T18:49:18.516Z,80.90
2017-07-16T18:51:46.168Z,80.30
2017-07-16T18:54:13.939Z,80.40
2017-07-16T18:56:41.547Z,80.60
2017-07-16T18:59:09.142Z,80.60
2017-07-16T19:01:36.720Z,80.70
2017-07-16T19:04:04.279Z,80.50
2017-07-16T19:06:31.818Z,80.50
2017-07-16T19:08:59.381Z,80.60
2017-07-16T19:11:27.335Z,81.40
2017-07-16T19:13:55.319Z,81.40
2017-07-16T19:16:22.865Z,81.40
2017-07-16T19:18:50.444Z,81.70
2017-07-16T19:21:18.019Z,82.00
2017-07-16T19:23:45.603Z,82.10
2017-07-16T19:26:13.238Z,82.30
2017-07-16T19:28:40.786Z,82.50
2017-07-16T19:31:08.390Z,82.40
2017-07-16T19:33:35.963Z,82.50
2017-07-16T19:36:03.639Z,82.90
2017-07-16T19:38:31.200Z,83.00
2017-07-16T19:40:58.750Z,83.20
2017-07-16T19:43:26.288Z,83.20
2017-07-16T19:45:53.827Z,83.20
2017-07-16T19:48:21.406Z,83.30
2017-07-16T19:50:48.972Z,83.50
2017-07-16T19:53:16.560Z,83.30
2017-07-16T19:55:44.114Z,83.80
2017-07-16T19:58:11.695Z,84.00
2017-07-16T20:00:39.620Z,83.80
2017-07-16T20:03:07.221Z,83.80
2017-07-16T20:05:34.819Z,83.70
2017-07-16T20:08:02.362Z,83.80
2017-07-16T20:10:29.963Z,84.10
2017-07-16T20:12:57.485Z,83.70
2017-07-16T20:15:25.053Z,83.60
2017-07-16T20:17:52.598Z,83.60
2017-07-16T20:20:20.127Z,83.50
2017-07-16T20:22:48.332Z,83.60
2017-07-16T20:25:16.316Z,83.70
2017-07-16T20:27:44.274Z,84.10
2017-07-16T20:30:11.855Z,84.00
2017-07-16T20:32:39.437Z,84.40
2017-07-16T20:35:07.163Z,84.20
2017-07-16T20:37:35.141Z,84.30
2017-07-16T20:40:02.726Z,84.40
2017-07-16T20:42:30.293Z,84.50
2017-07-16T20:44:57.849Z,84.60
2017-07-16T20:47:26.403Z,84.50
2017-07-16T20:49:53.949Z,84.40
2017-07-16T20:52:21.534Z,84.40
2017-07-16T20:54:49.103Z,84.70
2017-07-16T20:57:16.682Z,84.70
2017-07-16T20:59:44.229Z,84.70
2017-07-16T21:02:11.785Z,84.60
2017-07-16T21:04:39.320Z,84.80
2017-07-16T21:07:06.879Z,85.00
2017-07-16T21:09:34.403Z,85.10
2017-07-16T21:12:01.975Z,85.20
2017-07-16T21:14:29.566Z,85.50
2017-07-16T21:16:57.879Z,85.60
2017-07-16T21:19:25.468Z,85.50
2017-07-16T21:21:53.035Z,85.70
2017-07-16T21:24:20.622Z,85.90
2017-07-16T21:26:48.152Z,86.00
2017-07-16T21:29:15.735Z,86.40
2017-07-16T21:31:43.307Z,86.80
2017-07-16T21:34:10.873Z,87.00
2017-07-16T21:36:38.467Z,87.10
2017-07-16T21:39:06.039Z,87.30
2017-07-16T21:41:33.643Z,87.50
2017-07-16T21:44:01.215Z,87.50
2017-07-16T21:46:29.180Z,87.70
2017-07-16T21:48:56.753Z,87.70
2017-07-16T21:51:24.332Z,88.00
2017-07-16T21:53:51.907Z,88.10
2017-07-16T21:56:19.904Z,88.20
2017-07-16T21:58:47.484Z,88.20
2017-07-16T22:01:15.470Z,88.60
2017-07-16T22:03:43.007Z,88.60
2017-07-16T22:06:10.546Z,88.90
2017-07-16T22:08:38.099Z,87.90
2017-07-16T22:11:05.691Z,87.70
2017-07-16T22:13:33.334Z,87.60
2017-07-16T22:16:00.878Z,87.80
2017-07-16T22:18:28.478Z,88.00
2017-07-16T22:20:56.045Z,88.50
2017-07-16T22:23:23.629Z,88.90
2017-07-16T22:25:51.194Z,89.00
2017-07-16T22:28:18.758Z,88.80
2017-07-16T22:30:46.307Z,88.90
2017-07-16T22:33:13.846Z,89.10
2017-07-16T22:35:41.395Z,90.00
2017-07-16T22:38:08.939Z,90.40
2017-07-16T22:40:36.501Z,90.20
2017-07-16T22:43:04.478Z,90.00
2017-07-16T22:45:32.053Z,90.00
2017-07-16T22:47:59.616Z,89.80
2017-07-16T22:50:27.216Z,89.90
2017-07-16T22:52:54.772Z,89.80
2017-07-16T22:55:22.369Z,89.70
2017-07-16T22:57:49.931Z,89.40
2017-07-16T23:00:17.527Z,89.20
2017-07-16T23:02:45.137Z,89.10
2017-07-16T23:05:12.711Z,89.40
2017-07-16T23:07:40.268Z,89.60
2017-07-16T23:10:07.814Z,89.70
2017-07-16T23:12:35.376Z,89.80
2017-07-16T23:15:02.910Z,89.50
2017-07-16T23:17:30.857Z,89.90
2017-07-16T23:19:58.402Z,89.90
2017-07-16T23:22:33.198Z,89.80
2017-07-16T23:25:00.747Z,89.80
2017-07-16T23:27:28.322Z,90.00
2017-07-16T23:29:56.710Z,89.70
2017-07-16T23:32:25.125Z,89.70
2017-07-16T23:34:53.130Z,89.60
2017-07-16T23:37:20.695Z,89.60
2017-07-16T23:39:48.322Z,89.50
2017-07-16T23:42:15.876Z,89.30
2017-07-16T23:44:43.463Z,89.30
2017-07-16T23:47:11.074Z,89.50
2017-07-16T23:49:38.631Z,89.80
2017-07-16T23:52:06.199Z,89.80
2017-07-16T23:54:33.736Z,90.10
2017-07-16T23:57:01.292Z,90.00
2017-07-16T23:59:29.227Z,90.00
